Ponemah, Minnesota
Current Conditions -  °F | °C
As of 8:34 AM on Saturday 25 Oct 2014 (Local Time) from KVWU Reporting Station
Clear Clear  
Wind Chill: 37°   Ceiling: Unl
Heat Index: 45°   Visibility: 10mi
Dew Point: 36°   Wind: 16mph
Humidity: 71%   Direction: 260°W
Pressure: 29.94"   Gusts: 24mph
Location:  48.01°N, 94.93°W
Report Text: KVWU 251334Z AUTO 26014G21KT 10SM CLR 07/02 A2994 RMK AO2
Loading
Personal Weather Stations






























Interactive Weather Map
Tropical Storm Tracking
New forecast layout! Learn more

10-Day Weather Forecast

Advertisements
Track Severe Weather on mobile